sensor_id;sensor_type;location;lat;lon;timestamp;pressure;altitude;pressure_sealevel;temperature;humidity
3917;BME280;1973;50.518;7.318;2022-07-06T00:00:05;101756.53;;;18.46;83.54
3917;BME280;1973;50.518;7.318;2022-07-06T00:02:31;101758.69;;;18.44;84.34
3917;BME280;1973;50.518;7.318;2022-07-06T00:04:58;101759.81;;;18.43;85.45
3917;BME280;1973;50.518;7.318;2022-07-06T00:07:24;101758.09;;;18.42;85.73
3917;BME280;1973;50.518;7.318;2022-07-06T00:09:51;101765.63;;;18.41;86.29
3917;BME280;1973;50.518;7.318;2022-07-06T00:12:17;101765.38;;;18.43;86.96
3917;BME280;1973;50.518;7.318;2022-07-06T00:14:44;101756.66;;;18.39;87.81
3917;BME280;1973;50.518;7.318;2022-07-06T00:17:10;101765.25;;;18.38;88.24
3917;BME280;1973;50.518;7.318;2022-07-06T00:19:37;101770.00;;;18.37;88.95
3917;BME280;1973;50.518;7.318;2022-07-06T00:22:03;101768.31;;;18.36;89.36
3917;BME280;1973;50.518;7.318;2022-07-06T00:24:30;101767.91;;;18.33;90.58
3917;BME280;1973;50.518;7.318;2022-07-06T00:26:56;101766.25;;;18.32;90.47
3917;BME280;1973;50.518;7.318;2022-07-06T00:29:23;101762.34;;;18.33;90.10
3917;BME280;1973;50.518;7.318;2022-07-06T00:31:49;101761.97;;;18.29;90.08
3917;BME280;1973;50.518;7.318;2022-07-06T00:34:15;101762.25;;;18.28;89.72
3917;BME280;1973;50.518;7.318;2022-07-06T00:36:42;101764.41;;;18.26;90.28
3917;BME280;1973;50.518;7.318;2022-07-06T00:39:08;101752.91;;;18.22;90.30
3917;BME280;1973;50.518;7.318;2022-07-06T00:41:36;101761.53;;;18.21;90.00
3917;BME280;1973;50.518;7.318;2022-07-06T00:44:07;101754.25;;;18.20;90.70
3917;BME280;1973;50.518;7.318;2022-07-06T00:46:33;101756.91;;;18.15;91.30
3917;BME280;1973;50.518;7.318;2022-07-06T00:49:00;101758.72;;;18.09;92.46
3917;BME280;1973;50.518;7.318;2022-07-06T00:51:31;101766.34;;;18.02;93.97
3917;BME280;1973;50.518;7.318;2022-07-06T00:54:00;101778.09;;;17.92;94.71
3917;BME280;1973;50.518;7.318;2022-07-06T00:56:29;101772.88;;;17.84;95.59
3917;BME280;1973;50.518;7.318;2022-07-06T00:58:59;101765.34;;;17.73;96.87
3917;BME280;1973;50.518;7.318;2022-07-06T01:01:26;101765.22;;;17.68;97.24
3917;BME280;1973;50.518;7.318;2022-07-06T01:03:53;101763.84;;;17.59;97.96
3917;BME280;1973;50.518;7.318;2022-07-06T01:06:19;101767.56;;;17.53;98.40
3917;BME280;1973;50.518;7.318;2022-07-06T01:08:46;101765.47;;;17.48;99.47
3917;BME280;1973;50.518;7.318;2022-07-06T01:11:13;101771.16;;;17.42;100.00
3917;BME280;1973;50.518;7.318;2022-07-06T01:13:41;101771.47;;;17.34;100.00
3917;BME280;1973;50.518;7.318;2022-07-06T01:16:07;101772.91;;;17.25;100.00
3917;BME280;1973;50.518;7.318;2022-07-06T01:18:34;101774.47;;;17.21;100.00
3917;BME280;1973;50.518;7.318;2022-07-06T01:21:09;101773.25;;;17.17;100.00
3917;BME280;1973;50.518;7.318;2022-07-06T01:23:46;101764.72;;;17.12;100.00
3917;BME280;1973;50.518;7.318;2022-07-06T01:26:18;101762.28;;;17.03;100.00
3917;BME280;1973;50.518;7.318;2022-07-06T01:28:46;101768.31;;;17.00;100.00
3917;BME280;1973;50.518;7.318;2022-07-06T01:31:23;101771.19;;;16.94;100.00
3917;BME280;1973;50.518;7.318;2022-07-06T01:33:51;101772.13;;;16.88;100.00
3917;BME280;1973;50.518;7.318;2022-07-06T01:36:18;101765.56;;;16.82;100.00
3917;BME280;1973;50.518;7.318;2022-07-06T01:38:47;101770.81;;;16.72;100.00
3917;BME280;1973;50.518;7.318;2022-07-06T01:41:14;101767.75;;;16.62;100.00
3917;BME280;1973;50.518;7.318;2022-07-06T01:43:40;101780.63;;;16.57;100.00
3917;BME280;1973;50.518;7.318;2022-07-06T01:46:07;101776.66;;;16.46;100.00
3917;BME280;1973;50.518;7.318;2022-07-06T01:48:33;101781.03;;;16.35;100.00
3917;BME280;1973;50.518;7.318;2022-07-06T01:51:00;101778.16;;;16.24;100.00
3917;BME280;1973;50.518;7.318;2022-07-06T01:53:27;101775.66;;;16.16;100.00
3917;BME280;1973;50.518;7.318;2022-07-06T01:55:53;101766.81;;;16.07;100.00
3917;BME280;1973;50.518;7.318;2022-07-06T01:58:19;101773.72;;;15.98;100.00
3917;BME280;1973;50.518;7.318;2022-07-06T02:00:46;101777.63;;;15.90;100.00
3917;BME280;1973;50.518;7.318;2022-07-06T02:03:13;101775.13;;;15.82;100.00
3917;BME280;1973;50.518;7.318;2022-07-06T02:05:40;101780.28;;;15.79;100.00
3917;BME280;1973;50.518;7.318;2022-07-06T02:08:06;101777.78;;;15.71;100.00
3917;BME280;1973;50.518;7.318;2022-07-06T02:10:33;101782.09;;;15.67;100.00
3917;BME280;1973;50.518;7.318;2022-07-06T02:12:59;101780.44;;;15.59;100.00
3917;BME280;1973;50.518;7.318;2022-07-06T02:15:26;101783.66;;;15.56;100.00
3917;BME280;1973;50.518;7.318;2022-07-06T02:17:52;101782.63;;;15.50;100.00
3917;BME280;1973;50.518;7.318;2022-07-06T02:20:19;101787.34;;;15.50;100.00
3917;BME280;1973;50.518;7.318;2022-07-06T02:22:45;101782.19;;;15.47;100.00
3917;BME280;1973;50.518;7.318;2022-07-06T02:25:11;101791.84;;;15.44;100.00
3917;BME280;1973;50.518;7.318;2022-07-06T02:27:38;101786.31;;;15.38;100.00
3917;BME280;1973;50.518;7.318;2022-07-06T02:30:05;101783.81;;;15.30;100.00
3917;BME280;1973;50.518;7.318;2022-07-06T02:32:32;101790.88;;;15.26;100.00
3917;BME280;1973;50.518;7.318;2022-07-06T02:34:58;101793.25;;;15.16;100.00
3917;BME280;1973;50.518;7.318;2022-07-06T02:37:25;101796.94;;;15.09;100.00
3917;BME280;1973;50.518;7.318;2022-07-06T02:39:51;101790.13;;;15.05;100.00
3917;BME280;1973;50.518;7.318;2022-07-06T02:42:18;101790.78;;;15.01;100.00
3917;BME280;1973;50.518;7.318;2022-07-06T02:44:44;101788.88;;;14.95;100.00
3917;BME280;1973;50.518;7.318;2022-07-06T02:47:10;101782.94;;;14.91;100.00
3917;BME280;1973;50.518;7.318;2022-07-06T02:49:37;101792.31;;;14.90;100.00
3917;BME280;1973;50.518;7.318;2022-07-06T02:52:03;101787.84;;;14.89;100.00
3917;BME280;1973;50.518;7.318;2022-07-06T02:54:30;101787.22;;;14.87;100.00
3917;BME280;1973;50.518;7.318;2022-07-06T02:56:56;101791.03;;;14.86;100.00
3917;BME280;1973;50.518;7.318;2022-07-06T02:59:23;101794.91;;;14.85;100.00
3917;BME280;1973;50.518;7.318;2022-07-06T03:01:50;101801.72;;;14.83;100.00
3917;BME280;1973;50.518;7.318;2022-07-06T03:04:16;101803.47;;;14.77;100.00
3917;BME280;1973;50.518;7.318;2022-07-06T03:06:43;101797.72;;;14.72;100.00
3917;BME280;1973;50.518;7.318;2022-07-06T03:09:09;101796.69;;;14.67;100.00
3917;BME280;1973;50.518;7.318;2022-07-06T03:11:36;101800.53;;;14.59;100.00
3917;BME280;1973;50.518;7.318;2022-07-06T03:14:06;101804.16;;;14.53;100.00
3917;BME280;1973;50.518;7.318;2022-07-06T03:16:32;101802.47;;;14.45;100.00
3917;BME280;1973;50.518;7.318;2022-07-06T03:18:59;101807.19;;;14.38;100.00
3917;BME280;1973;50.518;7.318;2022-07-06T03:21:25;101809.31;;;14.30;100.00
3917;BME280;1973;50.518;7.318;2022-07-06T03:23:52;101815.94;;;14.22;100.00
3917;BME280;1973;50.518;7.318;2022-07-06T03:26:18;101812.94;;;14.17;100.00
3917;BME280;1973;50.518;7.318;2022-07-06T03:28:45;101814.22;;;14.14;100.00
3917;BME280;1973;50.518;7.318;2022-07-06T03:31:11;101822.97;;;14.11;100.00
3917;BME280;1973;50.518;7.318;2022-07-06T03:33:38;101819.97;;;14.13;100.00
3917;BME280;1973;50.518;7.318;2022-07-06T03:36:05;101813.56;;;14.12;100.00
3917;BME280;1973;50.518;7.318;2022-07-06T03:38:31;101813.81;;;14.11;100.00
3917;BME280;1973;50.518;7.318;2022-07-06T03:40:58;101820.19;;;14.11;100.00
3917;BME280;1973;50.518;7.318;2022-07-06T03:43:24;101828.50;;;14.11;100.00
3917;BME280;1973;50.518;7.318;2022-07-06T03:45:51;101826.13;;;14.08;100.00
3917;BME280;1973;50.518;7.318;2022-07-06T03:48:17;101830.81;;;14.08;100.00
3917;BME280;1973;50.518;7.318;2022-07-06T03:50:44;101820.19;;;14.05;100.00
3917;BME280;1973;50.518;7.318;2022-07-06T03:53:10;101836.38;;;14.01;100.00
3917;BME280;1973;50.518;7.318;2022-07-06T03:55:37;101831.25;;;13.98;100.00
3917;BME280;1973;50.518;7.318;2022-07-06T03:58:04;101837.22;;;13.95;100.00
3917;BME280;1973;50.518;7.318;2022-07-06T04:00:32;101842.53;;;13.90;100.00
3917;BME280;1973;50.518;7.318;2022-07-06T04:03:00;101844.44;;;13.83;100.00
3917;BME280;1973;50.518;7.318;2022-07-06T04:05:27;101852.56;;;13.78;100.00
3917;BME280;1973;50.518;7.318;2022-07-06T04:07:53;101847.84;;;13.72;100.00
3917;BME280;1973;50.518;7.318;2022-07-06T04:10:20;101853.19;;;13.67;100.00
3917;BME280;1973;50.518;7.318;2022-07-06T04:12:46;101855.72;;;13.62;100.00
3917;BME280;1973;50.518;7.318;2022-07-06T04:15:13;101861.44;;;13.60;100.00
3917;BME280;1973;50.518;7.318;2022-07-06T04:17:39;101861.44;;;13.60;100.00
3917;BME280;1973;50.518;7.318;2022-07-06T04:20:18;101861.44;;;13.60;100.00
3917;BME280;1973;50.518;7.318;2022-07-06T04:22:45;101859.53;;;13.61;100.00
3917;BME280;1973;50.518;7.318;2022-07-06T04:25:12;101862.31;;;13.61;100.00
3917;BME280;1973;50.518;7.318;2022-07-06T04:27:38;101861.44;;;13.60;100.00
3917;BME280;1973;50.518;7.318;2022-07-06T04:30:05;101860.59;;;13.60;100.00
3917;BME280;1973;50.518;7.318;2022-07-06T04:32:32;101864.00;;;13.62;100.00
3917;BME280;1973;50.518;7.318;2022-07-06T04:34:59;101864.63;;;13.64;100.00
3917;BME280;1973;50.518;7.318;2022-07-06T04:37:25;101866.16;;;13.67;100.00
3917;BME280;1973;50.518;7.318;2022-07-06T04:39:52;101872.75;;;13.72;100.00
3917;BME280;1973;50.518;7.318;2022-07-06T04:42:18;101869.38;;;13.77;100.00
3917;BME280;1973;50.518;7.318;2022-07-06T04:44:45;101873.41;;;13.81;100.00
3917;BME280;1973;50.518;7.318;2022-07-06T04:47:12;101876.84;;;13.89;100.00
3917;BME280;1973;50.518;7.318;2022-07-06T04:49:39;101870.88;;;13.92;100.00
3917;BME280;1973;50.518;7.318;2022-07-06T04:52:06;101875.56;;;13.98;100.00
3917;BME280;1973;50.518;7.318;2022-07-06T04:54:32;101868.53;;;14.02;100.00
3917;BME280;1973;50.518;7.318;2022-07-06T04:56:59;101867.25;;;14.05;100.00
3917;BME280;1973;50.518;7.318;2022-07-06T04:59:25;101876.66;;;14.10;100.00
3917;BME280;1973;50.518;7.318;2022-07-06T05:01:52;101876.03;;;14.15;100.00
3917;BME280;1973;50.518;7.318;2022-07-06T05:04:18;101883.25;;;14.23;100.00
3917;BME280;1973;50.518;7.318;2022-07-06T05:06:46;101874.28;;;14.27;100.00
3917;BME280;1973;50.518;7.318;2022-07-06T05:09:13;101867.72;;;14.35;100.00
3917;BME280;1973;50.518;7.318;2022-07-06T05:11:39;101874.09;;;14.42;100.00
3917;BME280;1973;50.518;7.318;2022-07-06T05:14:06;101873.88;;;14.50;100.00
3917;BME280;1973;50.518;7.318;2022-07-06T05:16:33;101877.72;;;14.55;100.00
3917;BME280;1973;50.518;7.318;2022-07-06T05:18:59;101873.03;;;14.63;100.00
3917;BME280;1973;50.518;7.318;2022-07-06T05:21:26;101877.25;;;14.72;100.00
3917;BME280;1973;50.518;7.318;2022-07-06T05:23:52;101884.50;;;14.79;100.00
3917;BME280;1973;50.518;7.318;2022-07-06T05:26:19;101875.50;;;14.90;100.00
3917;BME280;1973;50.518;7.318;2022-07-06T05:28:45;101884.22;;;15.00;100.00
3917;BME280;1973;50.518;7.318;2022-07-06T05:31:11;101883.53;;;15.11;100.00
3917;BME280;1973;50.518;7.318;2022-07-06T05:33:38;101879.88;;;15.24;100.00
3917;BME280;1973;50.518;7.318;2022-07-06T05:36:05;101884.94;;;15.34;100.00
3917;BME280;1973;50.518;7.318;2022-07-06T05:38:31;101890.25;;;15.42;100.00
3917;BME280;1973;50.518;7.318;2022-07-06T05:40:58;101884.88;;;15.53;100.00
3917;BME280;1973;50.518;7.318;2022-07-06T05:43:24;101891.91;;;15.63;100.00
3917;BME280;1973;50.518;7.318;2022-07-06T05:45:51;101880.31;;;15.72;100.00
3917;BME280;1973;50.518;7.318;2022-07-06T05:48:17;101874.47;;;15.80;100.00
3917;BME280;1973;50.518;7.318;2022-07-06T05:51:02;101875.91;;;15.89;100.00
3917;BME280;1973;50.518;7.318;2022-07-06T05:53:29;101879.72;;;15.95;100.00
3917;BME280;1973;50.518;7.318;2022-07-06T05:55:55;101874.13;;;16.01;100.00
3917;BME280;1973;50.518;7.318;2022-07-06T05:58:22;101878.72;;;16.14;100.00
3917;BME280;1973;50.518;7.318;2022-07-06T06:00:51;101882.31;;;16.21;100.00
3917;BME280;1973;50.518;7.318;2022-07-06T06:03:17;101876.28;;;16.24;100.00
3917;BME280;1973;50.518;7.318;2022-07-06T06:05:44;101881.78;;;16.31;100.00
3917;BME280;1973;50.518;7.318;2022-07-06T06:08:10;101886.66;;;16.35;100.00
3917;BME280;1973;50.518;7.318;2022-07-06T06:10:37;101885.34;;;16.38;100.00
3917;BME280;1973;50.518;7.318;2022-07-06T06:13:03;101887.25;;;16.44;100.00
3917;BME280;1973;50.518;7.318;2022-07-06T06:15:30;101882.28;;;16.46;100.00
3917;BME280;1973;50.518;7.318;2022-07-06T06:17:56;101886.16;;;16.45;100.00
3917;BME280;1973;50.518;7.318;2022-07-06T06:20:23;101876.72;;;16.46;100.00
3917;BME280;1973;50.518;7.318;2022-07-06T06:22:56;101879.72;;;16.44;100.00
3917;BME280;1973;50.518;7.318;2022-07-06T06:25:34;101882.28;;;16.46;100.00
3917;BME280;1973;50.518;7.318;2022-07-06T06:28:05;101878.06;;;16.43;100.00
3917;BME280;1973;50.518;7.318;2022-07-06T06:30:32;101887.00;;;16.45;100.00
3917;BME280;1973;50.518;7.318;2022-07-06T06:35:32;101891.09;;;16.43;100.00
3917;BME280;1973;50.518;7.318;2022-07-06T06:37:58;101886.16;;;16.45;100.00
3917;BME280;1973;50.518;7.318;2022-07-06T06:40:24;101893.41;;;16.46;100.00
3917;BME280;1973;50.518;7.318;2022-07-06T06:42:51;101898.50;;;16.49;100.00
3917;BME280;1973;50.518;7.318;2022-07-06T06:45:17;101895.06;;;16.53;100.00
3917;BME280;1973;50.518;7.318;2022-07-06T06:47:44;101899.34;;;16.56;100.00
3917;BME280;1973;50.518;7.318;2022-07-06T06:50:10;101902.97;;;16.57;100.00
3917;BME280;1973;50.518;7.318;2022-07-06T06:52:37;101902.97;;;16.57;100.00
3917;BME280;1973;50.518;7.318;2022-07-06T06:55:06;101893.34;;;16.59;100.00
3917;BME280;1973;50.518;7.318;2022-07-06T06:57:33;101897.72;;;16.67;100.00
3917;BME280;1973;50.518;7.318;2022-07-06T06:59:59;101888.88;;;16.76;100.00
3917;BME280;1973;50.518;7.318;2022-07-06T07:02:25;101890.03;;;16.87;100.00
3917;BME280;1973;50.518;7.318;2022-07-06T07:04:52;101896.31;;;17.00;100.00
3917;BME280;1973;50.518;7.318;2022-07-06T07:07:19;101900.63;;;17.15;100.00
3917;BME280;1973;50.518;7.318;2022-07-06T07:09:45;101896.94;;;17.21;100.00
3917;BME280;1973;50.518;7.318;2022-07-06T07:12:11;101905.00;;;17.29;100.00
3917;BME280;1973;50.518;7.318;2022-07-06T07:14:38;101902.34;;;17.34;100.00
3917;BME280;1973;50.518;7.318;2022-07-06T07:17:04;101898.00;;;17.38;100.00
3917;BME280;1973;50.518;7.318;2022-07-06T07:19:31;101893.66;;;17.42;100.00
3917;BME280;1973;50.518;7.318;2022-07-06T07:22:00;101895.75;;;17.46;100.00
3917;BME280;1973;50.518;7.318;2022-07-06T07:24:26;101896.06;;;17.57;100.00
3917;BME280;1973;50.518;7.318;2022-07-06T07:26:53;101899.88;;;17.62;100.00
3917;BME280;1973;50.518;7.318;2022-07-06T07:29:19;101898.44;;;17.71;100.00
3917;BME280;1973;50.518;7.318;2022-07-06T07:31:46;101905.16;;;17.82;100.00
3917;BME280;1973;50.518;7.318;2022-07-06T07:34:12;101905.88;;;17.77;100.00
3917;BME280;1973;50.518;7.318;2022-07-06T07:36:39;101915.53;;;17.75;100.00
3917;BME280;1973;50.518;7.318;2022-07-06T07:39:05;101914.56;;;17.69;100.00
3917;BME280;1973;50.518;7.318;2022-07-06T07:41:32;101909.22;;;17.68;100.00
3917;BME280;1973;50.518;7.318;2022-07-06T07:43:58;101912.25;;;17.66;100.00
3917;BME280;1973;50.518;7.318;2022-07-06T07:46:25;101900.63;;;17.69;100.00
3917;BME280;1973;50.518;7.318;2022-07-06T07:48:51;101906.09;;;17.76;100.00
3917;BME280;1973;50.518;7.318;2022-07-06T07:51:19;101909.97;;;17.75;100.00
3917;BME280;1973;50.518;7.318;2022-07-06T07:53:46;101910.34;;;17.78;100.00
3917;BME280;1973;50.518;7.318;2022-07-06T07:56:12;101912.44;;;17.83;99.38
3917;BME280;1973;50.518;7.318;2022-07-06T07:58:39;101908.78;;;17.82;98.96
3917;BME280;1973;50.518;7.318;2022-07-06T08:01:05;101903.59;;;17.86;99.18
3917;BME280;1973;50.518;7.318;2022-07-06T08:03:32;101903.47;;;17.92;99.37
3917;BME280;1973;50.518;7.318;2022-07-06T08:05:58;101893.38;;;18.10;99.98
3917;BME280;1973;50.518;7.318;2022-07-06T08:08:25;101895.56;;;18.19;98.60
3917;BME280;1973;50.518;7.318;2022-07-06T08:10:52;101894.38;;;18.27;97.32
3917;BME280;1973;50.518;7.318;2022-07-06T08:13:39;101900.09;;;18.32;94.71
3917;BME280;1973;50.518;7.318;2022-07-06T08:16:05;101896.19;;;18.33;93.95
3917;BME280;1973;50.518;7.318;2022-07-06T08:18:32;101896.59;;;18.36;93.70
3917;BME280;1973;50.518;7.318;2022-07-06T08:21:00;101880.69;;;18.37;92.31
3917;BME280;1973;50.518;7.318;2022-07-06T08:23:46;101883.38;;;18.32;90.59
3917;BME280;1973;50.518;7.318;2022-07-06T08:26:13;101882.38;;;18.38;90.75
3917;BME280;1973;50.518;7.318;2022-07-06T08:28:43;101883.13;;;18.45;91.16
3917;BME280;1973;50.518;7.318;2022-07-06T08:31:10;101880.75;;;18.60;91.08
3917;BME280;1973;50.518;7.318;2022-07-06T08:33:56;101876.13;;;18.77;90.38
3917;BME280;1973;50.518;7.318;2022-07-06T08:36:23;101883.63;;;18.88;88.55
3917;BME280;1973;50.518;7.318;2022-07-06T08:38:50;101886.91;;;18.97;87.41
3917;BME280;1973;50.518;7.318;2022-07-06T08:41:17;101886.19;;;19.02;87.60
3917;BME280;1973;50.518;7.318;2022-07-06T08:43:51;101884.25;;;19.02;86.83
3917;BME280;1973;50.518;7.318;2022-07-06T08:46:19;101885.91;;;19.03;85.78
3917;BME280;1973;50.518;7.318;2022-07-06T08:48:47;101884.59;;;19.06;85.56
3917;BME280;1973;50.518;7.318;2022-07-06T08:51:14;101890.06;;;19.01;84.92
3917;BME280;1973;50.518;7.318;2022-07-06T08:53:45;101887.16;;;18.95;82.07
3917;BME280;1973;50.518;7.318;2022-07-06T08:56:12;101883.25;;;18.96;83.71
3917;BME280;1973;50.518;7.318;2022-07-06T08:58:40;101886.31;;;18.95;83.52
3917;BME280;1973;50.518;7.318;2022-07-06T09:01:11;101878.53;;;18.97;83.48
3917;BME280;1973;50.518;7.318;2022-07-06T09:03:41;101889.56;;;18.92;82.97
3917;BME280;1973;50.518;7.318;2022-07-06T09:06:08;101884.13;;;18.85;84.11
3917;BME280;1973;50.518;7.318;2022-07-06T09:08:35;101891.06;;;18.94;83.88
3917;BME280;1973;50.518;7.318;2022-07-06T09:11:06;101887.75;;;18.98;83.44
3917;BME280;1973;50.518;7.318;2022-07-06T09:13:32;101883.03;;;18.98;83.12
3917;BME280;1973;50.518;7.318;2022-07-06T09:16:12;101886.78;;;19.04;81.05
3917;BME280;1973;50.518;7.318;2022-07-06T09:18:59;101887.75;;;19.09;82.44
3917;BME280;1973;50.518;7.318;2022-07-06T09:21:28;101890.41;;;19.16;81.46
3917;BME280;1973;50.518;7.318;2022-07-06T09:24:02;101887.72;;;19.21;81.30
3917;BME280;1973;50.518;7.318;2022-07-06T09:26:29;101880.66;;;19.30;80.53
3917;BME280;1973;50.518;7.318;2022-07-06T09:28:56;101880.41;;;19.43;80.32
3917;BME280;1973;50.518;7.318;2022-07-06T09:31:23;101878.47;;;19.32;79.59
3917;BME280;1973;50.518;7.318;2022-07-06T09:34:04;101869.94;;;19.38;71.68
3917;BME280;1973;50.518;7.318;2022-07-06T09:41:52;101867.25;;;19.55;73.47
3917;BME280;1973;50.518;7.318;2022-07-06T09:44:27;101876.44;;;19.67;70.35
3917;BME280;1973;50.518;7.318;2022-07-06T09:46:58;101879.41;;;19.77;70.03
3917;BME280;1973;50.518;7.318;2022-07-06T09:49:26;101873.25;;;19.92;70.20
3917;BME280;1973;50.518;7.318;2022-07-06T09:51:56;101870.41;;;20.04;67.96
3917;BME280;1973;50.518;7.318;2022-07-06T09:54:23;101867.88;;;20.19;68.58
3917;BME280;1973;50.518;7.318;2022-07-06T09:56:50;101879.25;;;20.29;68.03
3917;BME280;1973;50.518;7.318;2022-07-06T09:59:25;101872.06;;;20.33;59.25
3917;BME280;1973;50.518;7.318;2022-07-06T10:01:54;101881.31;;;20.33;62.41
3917;BME280;1973;50.518;7.318;2022-07-06T10:04:24;101870.03;;;20.45;61.70
3917;BME280;1973;50.518;7.318;2022-07-06T10:06:51;101870.72;;;20.52;61.02
3917;BME280;1973;50.518;7.318;2022-07-06T10:09:19;101863.41;;;20.51;58.93
3917;BME280;1973;50.518;7.318;2022-07-06T10:11:51;101877.41;;;20.51;57.64
3917;BME280;1973;50.518;7.318;2022-07-06T10:14:24;101859.38;;;20.42;57.51
3917;BME280;1973;50.518;7.318;2022-07-06T10:16:52;101864.97;;;20.42;59.44
3917;BME280;1973;50.518;7.318;2022-07-06T10:19:20;101872.84;;;20.45;59.43
3917;BME280;1973;50.518;7.318;2022-07-06T10:21:48;101862.84;;;20.49;59.99
3917;BME280;1973;50.518;7.318;2022-07-06T10:24:15;101865.97;;;20.53;60.62
3917;BME280;1973;50.518;7.318;2022-07-06T10:26:42;101871.13;;;20.61;60.16
3917;BME280;1973;50.518;7.318;2022-07-06T10:29:08;101859.25;;;20.70;59.76
3917;BME280;1973;50.518;7.318;2022-07-06T10:31:38;101857.19;;;20.82;59.58
3917;BME280;1973;50.518;7.318;2022-07-06T10:34:07;101868.72;;;20.86;57.25
3917;BME280;1973;50.518;7.318;2022-07-06T10:36:40;101858.91;;;20.83;55.65
3917;BME280;1973;50.518;7.318;2022-07-06T10:39:08;101870.75;;;20.91;57.01
3917;BME280;1973;50.518;7.318;2022-07-06T10:41:54;101859.28;;;20.92;56.14
3917;BME280;1973;50.518;7.318;2022-07-06T10:44:24;101865.28;;;21.01;54.41
3917;BME280;1973;50.518;7.318;2022-07-06T10:46:58;101871.66;;;20.96;54.35
3917;BME280;1973;50.518;7.318;2022-07-06T10:49:26;101873.84;;;21.11;54.08
3917;BME280;1973;50.518;7.318;2022-07-06T10:52:16;101870.50;;;21.30;51.32
3917;BME280;1973;50.518;7.318;2022-07-06T10:54:43;101863.13;;;21.46;52.07
3917;BME280;1973;50.518;7.318;2022-07-06T10:57:12;101854.19;;;21.49;50.76
3917;BME280;1973;50.518;7.318;2022-07-06T11:00:00;101853.72;;;21.57;50.06
3917;BME280;1973;50.518;7.318;2022-07-06T11:02:26;101851.16;;;21.56;50.71
3917;BME280;1973;50.518;7.318;2022-07-06T11:04:53;101858.47;;;21.57;50.24
3917;BME280;1973;50.518;7.318;2022-07-06T11:07:20;101846.94;;;21.53;50.07
3917;BME280;1973;50.518;7.318;2022-07-06T11:09:58;101851.38;;;21.49;48.41
3917;BME280;1973;50.518;7.318;2022-07-06T11:12:25;101844.59;;;21.45;49.58
3917;BME280;1973;50.518;7.318;2022-07-06T11:14:52;101845.25;;;21.52;50.04
3917;BME280;1973;50.518;7.318;2022-07-06T11:17:20;101851.25;;;21.61;49.61
3917;BME280;1973;50.518;7.318;2022-07-06T11:19:58;101850.97;;;21.62;47.08
3917;BME280;1973;50.518;7.318;2022-07-06T11:22:26;101844.84;;;21.65;48.41
3917;BME280;1973;50.518;7.318;2022-07-06T11:24:53;101847.69;;;21.70;48.28
3917;BME280;1973;50.518;7.318;2022-07-06T11:27:22;101842.69;;;21.72;48.67
3917;BME280;1973;50.518;7.318;2022-07-06T11:29:49;101835.91;;;21.68;48.92
3917;BME280;1973;50.518;7.318;2022-07-06T11:32:23;101839.50;;;21.64;47.26
3917;BME280;1973;50.518;7.318;2022-07-06T11:34:50;101841.38;;;21.58;48.48
3917;BME280;1973;50.518;7.318;2022-07-06T11:37:16;101840.81;;;21.56;48.71
3917;BME280;1973;50.518;7.318;2022-07-06T11:39:46;101839.19;;;21.60;48.61
3917;BME280;1973;50.518;7.318;2022-07-06T11:42:15;101839.75;;;21.62;48.29
3917;BME280;1973;50.518;7.318;2022-07-06T11:44:43;101839.13;;;21.82;48.11
3917;BME280;1973;50.518;7.318;2022-07-06T11:47:11;101838.53;;;22.02;47.08
3917;BME280;1973;50.518;7.318;2022-07-06T11:49:39;101843.06;;;22.08;46.58
3917;BME280;1973;50.518;7.318;2022-07-06T11:52:11;101837.75;;;22.11;45.94
3917;BME280;1973;50.518;7.318;2022-07-06T11:54:39;101834.06;;;22.06;46.62
3917;BME280;1973;50.518;7.318;2022-07-06T11:57:08;101840.72;;;22.00;47.16
3917;BME280;1973;50.518;7.318;2022-07-06T11:59:37;101833.94;;;21.96;47.57
3917;BME280;1973;50.518;7.318;2022-07-06T12:02:10;101830.66;;;21.99;47.54
3917;BME280;1973;50.518;7.318;2022-07-06T12:04:40;101825.66;;;22.06;47.32
3917;BME280;1973;50.518;7.318;2022-07-06T12:07:13;101833.53;;;22.09;47.59
3917;BME280;1973;50.518;7.318;2022-07-06T12:09:44;101821.47;;;22.08;46.99
3917;BME280;1973;50.518;7.318;2022-07-06T12:12:11;101826.75;;;22.05;46.76
3917;BME280;1973;50.518;7.318;2022-07-06T12:14:40;101826.13;;;21.98;46.63
3917;BME280;1973;50.518;7.318;2022-07-06T12:17:12;101820.88;;;21.79;45.83
3917;BME280;1973;50.518;7.318;2022-07-06T12:19:39;101833.09;;;21.68;47.10
3917;BME280;1973;50.518;7.318;2022-07-06T12:22:06;101822.06;;;21.62;47.99
3917;BME280;1973;50.518;7.318;2022-07-06T12:24:35;101829.16;;;21.69;47.61
3917;BME280;1973;50.518;7.318;2022-07-06T12:27:20;101808.13;;;22.25;47.76
3917;BME280;1973;50.518;7.318;2022-07-06T12:29:48;101799.81;;;22.72;46.72
3917;BME280;1973;50.518;7.318;2022-07-06T12:32:21;101805.13;;;22.74;45.63
3917;BME280;1973;50.518;7.318;2022-07-06T12:35:04;101810.13;;;22.67;44.40
3917;BME280;1973;50.518;7.318;2022-07-06T12:37:31;101802.97;;;22.49;45.74
3917;BME280;1973;50.518;7.318;2022-07-06T12:39:57;101802.31;;;22.37;45.68
3917;BME280;1973;50.518;7.318;2022-07-06T12:42:24;101795.56;;;22.33;45.04
3917;BME280;1973;50.518;7.318;2022-07-06T12:44:51;101800.00;;;22.29;45.01
3917;BME280;1973;50.518;7.318;2022-07-06T12:47:20;101797.69;;;22.21;44.90
3917;BME280;1973;50.518;7.318;2022-07-06T12:49:48;101799.44;;;22.27;44.88
3917;BME280;1973;50.518;7.318;2022-07-06T12:52:16;101798.97;;;22.35;45.07
3917;BME280;1973;50.518;7.318;2022-07-06T12:54:50;101792.31;;;22.51;44.02
3917;BME280;1973;50.518;7.318;2022-07-06T12:57:23;101797.13;;;22.56;44.59
3917;BME280;1973;50.518;7.318;2022-07-06T13:02:33;101798.78;;;22.94;43.00
3917;BME280;1973;50.518;7.318;2022-07-06T13:05:24;101787.50;;;22.89;43.63
3917;BME280;1973;50.518;7.318;2022-07-06T13:07:55;101791.97;;;22.79;43.47
3917;BME280;1973;50.518;7.318;2022-07-06T13:10:23;101794.19;;;22.77;43.73
3917;BME280;1973;50.518;7.318;2022-07-06T13:12:49;101793.94;;;22.79;43.43
3917;BME280;1973;50.518;7.318;2022-07-06T13:15:16;101782.41;;;22.80;43.09
3917;BME280;1973;50.518;7.318;2022-07-06T13:17:43;101784.09;;;22.82;43.59
3917;BME280;1973;50.518;7.318;2022-07-06T13:20:12;101772.06;;;22.86;43.29